KAR441 URSS-UWLL
Flight info
| Callsign | KAR441 |
|---|---|
| Flight time | N/A |
| Altitude | 35000 |
| Route | IRGID1D IRGID A944 GUBOR G487 ERSAR B967 MNW R227 BEMES DCT DETIR B945 UP N50 MOLED R807 UROBO P135 DAFOS T789 NEPNI NEPNI1E |
| Aircraft | B739/M-SDFGHIRWXY/LB1 |
Departure
| Time | N/A |
|---|---|
| Airport | Sochi International Airport (URSS) |
Arrival
| Time | 2026-04-30 19:13 |
|---|---|
| Airport | Ulyanovsk Baratayevka Airport (UWLL) |
| Time | Latitude | Longitude | Altitude | Speed | Heading |
|---|---|---|---|---|---|
| 2026-04-30 17:39 | 44.81841 | 47.27876 | 35135 ft | 428 kts | 343° |
| 2026-04-30 17:42 | 45.11454 | 47.22026 | 35145 ft | 427 kts | 343° |
| 2026-04-30 17:43 | 45.26275 | 47.19134 | 35138 ft | 430 kts | 342° |
| 2026-04-30 17:44 | 45.44055 | 47.15645 | 35132 ft | 430 kts | 342° |
| 2026-04-30 17:47 | 45.70842 | 47.10350 | 35134 ft | 431 kts | 342° |
| 2026-04-30 17:48 | 45.91630 | 47.05894 | 35134 ft | 424 kts | 335° |
| 2026-04-30 17:49 | 46.02036 | 46.99048 | 35133 ft | 409 kts | 322° |
| 2026-04-30 17:50 | 46.12054 | 46.91119 | 35118 ft | 409 kts | 322° |
| 2026-04-30 17:52 | 46.27345 | 46.79745 | 35119 ft | 418 kts | 327° |
| 2026-04-30 17:54 | 46.51165 | 46.63747 | 35137 ft | 421 kts | 327° |
| 2026-04-30 17:56 | 46.72365 | 46.49219 | 35127 ft | 421 kts | 327° |
| 2026-04-30 17:58 | 46.88379 | 46.38157 | 35140 ft | 425 kts | 327° |
| 2026-04-30 18:00 | 47.09738 | 46.23289 | 35145 ft | 425 kts | 327° |
| 2026-04-30 18:01 | 47.22589 | 46.14259 | 35150 ft | 429 kts | 327° |
| 2026-04-30 18:02 | 47.38778 | 46.02823 | 35155 ft | 430 kts | 327° |
| 2026-04-30 18:04 | 47.55050 | 45.91291 | 35171 ft | 432 kts | 327° |
| 2026-04-30 18:06 | 47.76812 | 45.75747 | 35170 ft | 436 kts | 327° |
| 2026-04-30 18:08 | 47.95960 | 45.61950 | 35159 ft | 437 kts | 327° |
| 2026-04-30 18:10 | 48.17926 | 45.45977 | 35155 ft | 437 kts | 327° |
| 2026-04-30 18:11 | 48.37181 | 45.31832 | 35147 ft | 438 kts | 326° |
| 2026-04-30 18:13 | 48.48745 | 45.19839 | 35147 ft | 432 kts | 316° |
| 2026-04-30 18:14 | 48.60557 | 45.05850 | 35152 ft | 432 kts | 316° |
| 2026-04-30 18:15 | 48.75639 | 44.88026 | 35155 ft | 435 kts | 317° |
| 2026-04-30 18:16 | 48.79866 | 44.83834 | 35149 ft | 443 kts | 328° |
| 2026-04-30 18:16 | 48.85947 | 44.81448 | 35147 ft | 462 kts | 351° |
| 2026-04-30 18:17 | 48.92471 | 44.81887 | 35141 ft | 473 kts | 4° |
| 2026-04-30 18:18 | 49.03179 | 44.86124 | 35136 ft | 477 kts | 12° |
| 2026-04-30 18:18 | 49.08466 | 44.88551 | 35143 ft | 477 kts | 12° |
| 2026-04-30 18:19 | 49.14971 | 44.91472 | 35144 ft | 479 kts | 12° |
| 2026-04-30 18:19 | 49.21373 | 44.94272 | 35138 ft | 477 kts | 11° |
| 2026-04-30 18:20 | 49.27778 | 44.97033 | 35142 ft | 471 kts | 11° |
| 2026-04-30 18:20 | 49.34014 | 44.99715 | 35136 ft | 463 kts | 11° |
| 2026-04-30 18:21 | 49.41320 | 45.02838 | 35131 ft | 466 kts | 11° |
| 2026-04-30 18:21 | 49.46544 | 45.05077 | 35132 ft | 465 kts | 11° |
| 2026-04-30 18:22 | 49.52795 | 45.07766 | 35125 ft | 466 kts | 11° |
| 2026-04-30 18:22 | 49.62142 | 45.11803 | 35121 ft | 465 kts | 11° |
| 2026-04-30 18:23 | 49.68374 | 45.14504 | 35115 ft | 468 kts | 12° |
| 2026-04-30 18:23 | 49.75737 | 45.17709 | 35113 ft | 476 kts | 12° |
| 2026-04-30 18:24 | 49.84283 | 45.21457 | 35109 ft | 478 kts | 12° |
| 2026-04-30 18:25 | 49.90707 | 45.24289 | 35107 ft | 477 kts | 12° |
| 2026-04-30 18:25 | 50.01318 | 45.28982 | 35102 ft | 474 kts | 12° |
| 2026-04-30 18:26 | 50.10989 | 45.32590 | 35097 ft | 476 kts | 8° |
| 2026-04-30 18:27 | 50.19687 | 45.35399 | 35097 ft | 475 kts | 8° |
| 2026-04-30 18:28 | 50.29478 | 45.38647 | 35086 ft | 476 kts | 8° |
| 2026-04-30 18:28 | 50.39196 | 45.41958 | 35080 ft | 475 kts | 9° |
| 2026-04-30 18:29 | 50.52145 | 45.46420 | 35078 ft | 475 kts | 9° |
| 2026-04-30 18:30 | 50.65027 | 45.50888 | 35068 ft | 475 kts | 9° |
| 2026-04-30 18:31 | 50.74768 | 45.54283 | 35058 ft | 476 kts | 9° |
| 2026-04-30 18:32 | 50.84457 | 45.57697 | 35050 ft | 476 kts | 9° |
| 2026-04-30 18:33 | 50.94173 | 45.61196 | 35046 ft | 475 kts | 9° |
| 2026-04-30 18:33 | 51.03801 | 45.65138 | 35045 ft | 477 kts | 18° |
| 2026-04-30 18:34 | 51.13103 | 45.71542 | 35037 ft | 480 kts | 24° |
| 2026-04-30 18:35 | 51.19105 | 45.76169 | 35045 ft | 480 kts | 25° |
| 2026-04-30 18:35 | 51.25166 | 45.80850 | 35041 ft | 479 kts | 24° |
| 2026-04-30 18:36 | 51.34191 | 45.87752 | 35036 ft | 480 kts | 24° |
| 2026-04-30 18:37 | 51.43255 | 45.94653 | 35032 ft | 479 kts | 24° |
| 2026-04-30 18:37 | 51.49271 | 45.99240 | 35045 ft | 479 kts | 24° |
| 2026-04-30 18:38 | 51.55335 | 46.03873 | 35044 ft | 479 kts | 24° |
| 2026-04-30 18:38 | 51.61328 | 46.08591 | 35039 ft | 479 kts | 26° |
| 2026-04-30 18:39 | 51.67275 | 46.13509 | 35049 ft | 478 kts | 26° |
| 2026-04-30 18:39 | 51.73202 | 46.18464 | 35042 ft | 478 kts | 26° |
| 2026-04-30 18:40 | 51.79096 | 46.23385 | 35041 ft | 479 kts | 26° |
| 2026-04-30 18:40 | 51.85035 | 46.28337 | 35034 ft | 479 kts | 26° |
| 2026-04-30 18:41 | 51.90973 | 46.33290 | 35016 ft | 477 kts | 26° |
| 2026-04-30 18:41 | 51.96895 | 46.38239 | 35006 ft | 478 kts | 26° |
| 2026-04-30 18:42 | 52.02833 | 46.43214 | 35005 ft | 478 kts | 26° |
| 2026-04-30 18:42 | 52.11744 | 46.50709 | 35005 ft | 478 kts | 26° |
| 2026-04-30 18:45 | 52.44419 | 46.78500 | 34973 ft | 479 kts | 27° |
| 2026-04-30 18:46 | 52.50272 | 46.83530 | 34995 ft | 479 kts | 28° |
| 2026-04-30 18:46 | 52.56219 | 46.88653 | 34954 ft | 477 kts | 28° |
| 2026-04-30 18:46 | 52.59141 | 46.91176 | 34777 ft | 472 kts | 28° |
| 2026-04-30 18:47 | 52.62031 | 46.93675 | 34388 ft | 475 kts | 28° |
| 2026-04-30 18:47 | 52.64986 | 46.96234 | 33990 ft | 474 kts | 28° |
| 2026-04-30 18:47 | 52.67894 | 46.98757 | 33522 ft | 472 kts | 28° |
| 2026-04-30 18:47 | 52.70752 | 47.01239 | 33134 ft | 470 kts | 28° |
| 2026-04-30 18:48 | 52.73644 | 47.03754 | 32747 ft | 468 kts | 28° |
| 2026-04-30 18:48 | 52.76529 | 47.06266 | 32348 ft | 466 kts | 28° |
| 2026-04-30 18:48 | 52.79376 | 47.08750 | 31956 ft | 465 kts | 27° |
| 2026-04-30 18:48 | 52.82220 | 47.11235 | 31590 ft | 463 kts | 27° |
| 2026-04-30 18:49 | 52.85087 | 47.13746 | 31213 ft | 462 kts | 27° |
| 2026-04-30 18:49 | 52.87911 | 47.16222 | 30840 ft | 461 kts | 27° |
| 2026-04-30 18:49 | 52.90777 | 47.18741 | 30416 ft | 459 kts | 27° |
| 2026-04-30 18:49 | 52.93590 | 47.21214 | 29957 ft | 458 kts | 28° |
| 2026-04-30 18:50 | 52.96382 | 47.23672 | 29504 ft | 457 kts | 28° |
| 2026-04-30 18:50 | 52.99163 | 47.26124 | 29045 ft | 455 kts | 28° |
| 2026-04-30 18:50 | 53.01989 | 47.28618 | 28573 ft | 454 kts | 28° |
| 2026-04-30 18:50 | 53.04751 | 47.31057 | 28106 ft | 453 kts | 28° |
| 2026-04-30 18:51 | 53.07523 | 47.33510 | 27565 ft | 452 kts | 29° |
| 2026-04-30 18:51 | 53.10283 | 47.35960 | 27004 ft | 450 kts | 29° |
| 2026-04-30 18:51 | 53.13123 | 47.38459 | 26434 ft | 448 kts | 28° |
| 2026-04-30 18:51 | 53.15897 | 47.40935 | 25867 ft | 446 kts | 29° |
| 2026-04-30 18:52 | 53.18612 | 47.43361 | 25299 ft | 444 kts | 29° |
| 2026-04-30 18:52 | 53.21339 | 47.45800 | 24726 ft | 443 kts | 29° |
| 2026-04-30 18:52 | 53.24056 | 47.48227 | 24104 ft | 441 kts | 29° |
| 2026-04-30 18:52 | 53.26734 | 47.50619 | 23501 ft | 439 kts | 29° |
| 2026-04-30 18:53 | 53.29422 | 47.53019 | 22816 ft | 438 kts | 29° |
| 2026-04-30 18:53 | 53.32088 | 47.55401 | 22062 ft | 433 kts | 29° |
| 2026-04-30 18:53 | 53.34723 | 47.57756 | 21332 ft | 428 kts | 29° |
| 2026-04-30 18:53 | 53.37343 | 47.60101 | 20583 ft | 423 kts | 29° |
| 2026-04-30 18:54 | 53.39915 | 47.62406 | 19848 ft | 418 kts | 29° |
| 2026-04-30 18:54 | 53.42455 | 47.64687 | 19122 ft | 413 kts | 29° |
| 2026-04-30 18:54 | 53.45005 | 47.66990 | 18383 ft | 407 kts | 30° |
| 2026-04-30 18:54 | 53.47537 | 47.69259 | 17650 ft | 402 kts | 29° |
| 2026-04-30 18:55 | 53.50056 | 47.71249 | 16926 ft | 398 kts | 25° |
| 2026-04-30 18:55 | 53.55154 | 47.74621 | 15514 ft | 389 kts | 21° |
| 2026-04-30 18:55 | 53.57653 | 47.76189 | 14801 ft | 385 kts | 21° |
| 2026-04-30 18:56 | 53.62574 | 47.79327 | 13412 ft | 376 kts | 22° |
| 2026-04-30 18:56 | 53.64989 | 47.80902 | 12706 ft | 371 kts | 22° |
| 2026-04-30 18:56 | 53.67377 | 47.82474 | 12015 ft | 367 kts | 22° |
| 2026-04-30 18:57 | 53.71952 | 47.85934 | 10769 ft | 354 kts | 30° |
| 2026-04-30 18:57 | 53.74052 | 47.87953 | 10404 ft | 340 kts | 32° |
| 2026-04-30 18:57 | 53.76041 | 47.89964 | 10245 ft | 325 kts | 33° |
| 2026-04-30 18:58 | 53.79782 | 47.93772 | 9918 ft | 304 kts | 32° |
| 2026-04-30 18:58 | 53.81574 | 47.95567 | 9538 ft | 302 kts | 32° |
| 2026-04-30 18:58 | 53.83410 | 47.97395 | 9019 ft | 305 kts | 32° |
| 2026-04-30 18:59 | 53.87012 | 48.00972 | 8208 ft | 294 kts | 32° |
| 2026-04-30 19:00 | 53.92063 | 48.06023 | 8046 ft | 279 kts | 33° |
| 2026-04-30 19:00 | 53.93740 | 48.07697 | 8051 ft | 279 kts | 32° |
| 2026-04-30 19:00 | 53.97075 | 48.11023 | 8057 ft | 278 kts | 32° |
| 2026-04-30 19:01 | 54.00398 | 48.14371 | 8061 ft | 278 kts | 32° |
| 2026-04-30 19:01 | 54.02082 | 48.16053 | 8062 ft | 278 kts | 30° |
| 2026-04-30 19:02 | 54.05826 | 48.17242 | 7769 ft | 285 kts | 346° |
| 2026-04-30 19:02 | 54.08768 | 48.13088 | 6997 ft | 285 kts | 292° |
| 2026-04-30 19:03 | 54.09394 | 48.06519 | 6224 ft | 282 kts | 273° |
| 2026-04-30 19:03 | 54.09623 | 47.99803 | 5356 ft | 284 kts | 273° |
| 2026-04-30 19:04 | 54.09811 | 47.93218 | 4438 ft | 279 kts | 273° |
| 2026-04-30 19:04 | 54.09961 | 47.86652 | 3504 ft | 275 kts | 273° |
| 2026-04-30 19:05 | 54.10330 | 47.80284 | 2937 ft | 263 kts | 295° |
| 2026-04-30 19:05 | 54.12964 | 47.76345 | 3596 ft | 258 kts | 346° |
| 2026-04-30 19:06 | 54.16437 | 47.76734 | 4068 ft | 253 kts | 26° |
| 2026-04-30 19:06 | 54.17883 | 47.78394 | 4061 ft | 250 kts | 50° |
| 2026-04-30 19:06 | 54.18601 | 47.83892 | 4068 ft | 250 kts | 105° |
| 2026-04-30 19:07 | 54.17237 | 47.89379 | 4062 ft | 251 kts | 113° |
| 2026-04-30 19:07 | 54.16505 | 47.92081 | 4061 ft | 251 kts | 113° |
| 2026-04-30 19:08 | 54.15053 | 47.97488 | 4062 ft | 250 kts | 113° |
| 2026-04-30 19:08 | 54.13620 | 48.02808 | 3406 ft | 249 kts | 112° |
| 2026-04-30 19:08 | 54.12951 | 48.05478 | 3101 ft | 244 kts | 103° |
| 2026-04-30 19:09 | 54.13726 | 48.10502 | 2946 ft | 217 kts | 41° |
| 2026-04-30 19:09 | 54.15029 | 48.11548 | 2886 ft | 207 kts | 15° |
| 2026-04-30 19:09 | 54.16398 | 48.12114 | 2729 ft | 195 kts | 22° |
| 2026-04-30 19:10 | 54.18629 | 48.14001 | 2215 ft | 165 kts | 30° |
| 2026-04-30 19:10 | 54.20457 | 48.15798 | 1813 ft | 148 kts | 32° |
| 2026-04-30 19:11 | 54.21352 | 48.16713 | 1587 ft | 148 kts | 32° |
| 2026-04-30 19:11 | 54.23169 | 48.18440 | 1137 ft | 151 kts | 30° |
| 2026-04-30 19:11 | 54.24064 | 48.19383 | 915 ft | 150 kts | 33° |
| 2026-04-30 19:12 | 54.24962 | 48.20363 | 728 ft | 153 kts | 32° |
| 2026-04-30 19:12 | 54.25858 | 48.21316 | 508 ft | 151 kts | 31° |
| 2026-04-30 19:12 | 54.26681 | 48.22196 | 468 ft | 119 kts | 31° |
| 2026-04-30 19:13 | 54.27563 | 48.23150 | 468 ft | 32 kts | 32° |
| 2026-04-30 19:13 | 54.27676 | 48.23633 | 468 ft | 8 kts | 78° |
| 2026-04-30 19:13 | 54.27694 | 48.23712 | 468 ft | 6 kts | 51° |
| 2026-04-30 19:14 | 54.27723 | 48.23754 | 468 ft | 5 kts | 34° |
| 2026-04-30 19:14 | 54.27784 | 48.23817 | 468 ft | 16 kts | 31° |
| 2026-04-30 19:14 | 54.27897 | 48.23940 | 468 ft | 18 kts | 32° |
| 2026-04-30 19:14 | 54.27989 | 48.24041 | 468 ft | 14 kts | 32° |
| 2026-04-30 19:15 | 54.28063 | 48.24121 | 468 ft | 11 kts | 32° |
| 2026-04-30 19:15 | 54.28182 | 48.24172 | 468 ft | 5 kts | 315° |
| 2026-04-30 19:15 | 54.28183 | 48.24170 | 468 ft | 0 kts | 312° |
| 2026-04-30 19:17 | 54.28202 | 48.24128 | 468 ft | 10 kts | 306° |
| 2026-04-30 19:17 | 54.28286 | 48.23896 | 468 ft | 10 kts | 302° |
| 2026-04-30 19:17 | 54.28319 | 48.23806 | 468 ft | 10 kts | 302° |
| 2026-04-30 19:18 | 54.28368 | 48.23674 | 468 ft | 0 kts | 301° |
| 2026-04-30 19:18 | 54.28368 | 48.23672 | 468 ft | 0 kts | 301° |